createdAt,value
2017-09-21T00:01:57.024Z,12.60
2017-09-21T00:04:24.464Z,12.50
2017-09-21T00:06:51.999Z,12.50
2017-09-21T00:09:19.442Z,12.50
2017-09-21T00:11:46.863Z,12.50
2017-09-21T00:14:14.312Z,12.40
2017-09-21T00:16:41.744Z,12.40
2017-09-21T00:19:09.221Z,12.30
2017-09-21T00:21:36.768Z,12.30
2017-09-21T00:24:04.248Z,12.30
2017-09-21T00:26:31.760Z,12.20
2017-09-21T00:28:59.287Z,12.20
2017-09-21T00:31:26.728Z,12.20
2017-09-21T00:33:54.172Z,12.20
2017-09-21T00:36:21.615Z,12.20
2017-09-21T00:38:49.155Z,12.20
2017-09-21T00:41:16.603Z,12.20
2017-09-21T00:43:44.040Z,12.20
2017-09-21T00:46:11.467Z,12.10
2017-09-21T00:48:39.037Z,12.10
2017-09-21T00:51:06.471Z,12.10
2017-09-21T00:53:33.903Z,12.10
2017-09-21T00:56:01.344Z,12.10
2017-09-21T00:58:28.804Z,12.10
2017-09-21T01:00:56.245Z,12.00
2017-09-21T01:03:23.680Z,11.90
2017-09-21T01:05:51.128Z,11.90
2017-09-21T01:08:18.576Z,11.90
2017-09-21T01:10:46.020Z,11.90
2017-09-21T01:13:13.564Z,11.80
2017-09-21T01:15:41.776Z,11.80
2017-09-21T01:18:09.216Z,11.80
2017-09-21T01:20:36.713Z,11.70
2017-09-21T01:23:04.160Z,11.60
2017-09-21T01:25:31.701Z,11.60
2017-09-21T01:27:59.240Z,11.60
2017-09-21T01:30:26.679Z,11.60
2017-09-21T01:32:54.120Z,11.60
2017-09-21T01:35:21.556Z,11.60
2017-09-21T01:37:49.000Z,11.50
2017-09-21T01:40:16.456Z,11.60
2017-09-21T01:42:43.888Z,11.50
2017-09-21T01:45:11.324Z,11.50
2017-09-21T01:47:38.784Z,11.50
2017-09-21T01:50:06.336Z,11.50
2017-09-21T01:52:35.276Z,11.40
2017-09-21T01:55:02.752Z,11.40
2017-09-21T01:57:30.187Z,11.30
2017-09-21T01:59:57.632Z,11.20
2017-09-21T02:02:25.176Z,11.20
2017-09-21T02:04:52.801Z,11.10
2017-09-21T02:07:20.264Z,11.00
2017-09-21T02:09:47.819Z,11.00
2017-09-21T02:12:15.260Z,10.90
2017-09-21T02:14:42.795Z,10.90
2017-09-21T02:17:10.245Z,10.80
2017-09-21T02:19:37.795Z,10.80
2017-09-21T02:22:06.000Z,10.70
2017-09-21T02:24:33.433Z,10.70
2017-09-21T02:27:00.888Z,10.70
2017-09-21T02:29:28.327Z,10.60
2017-09-21T02:31:55.820Z,10.60
2017-09-21T02:34:23.360Z,10.50
2017-09-21T02:36:50.883Z,10.50
2017-09-21T02:39:18.349Z,10.40
2017-09-21T02:41:45.799Z,10.40
2017-09-21T02:44:13.255Z,10.30
2017-09-21T02:46:41.459Z,10.30
2017-09-21T02:49:08.906Z,10.30
2017-09-21T02:51:36.376Z,10.20
2017-09-21T02:54:03.835Z,10.20
2017-09-21T02:56:31.376Z,10.20
2017-09-21T02:58:58.819Z,10.20
2017-09-21T03:01:26.259Z,10.00
2017-09-21T03:03:53.704Z,10.00
2017-09-21T03:06:21.232Z,10.00
2017-09-21T03:08:48.678Z,10.00
2017-09-21T03:11:16.120Z,9.90
2017-09-21T03:13:43.668Z,10.00
2017-09-21T03:16:11.108Z,9.90
2017-09-21T03:18:38.552Z,9.90
2017-09-21T03:21:05.987Z,9.80
2017-09-21T03:23:33.540Z,9.80
2017-09-21T03:26:00.979Z,9.80
2017-09-21T03:28:28.423Z,9.80
2017-09-21T03:30:55.969Z,9.70
2017-09-21T03:33:23.516Z,9.70
2017-09-21T03:35:50.953Z,9.60
2017-09-21T03:38:18.508Z,9.60
2017-09-21T03:40:46.027Z,9.60
2017-09-21T03:43:13.472Z,9.60
2017-09-21T03:45:40.921Z,9.50
2017-09-21T03:48:08.357Z,9.50
2017-09-21T03:50:35.803Z,9.50
2017-09-21T03:53:03.243Z,9.40
2017-09-21T03:55:30.684Z,9.40
2017-09-21T03:57:58.120Z,9.40
2017-09-21T04:00:25.561Z,9.40
2017-09-21T04:02:53.031Z,9.40
2017-09-21T04:05:20.472Z,9.30
2017-09-21T04:07:47.907Z,9.30
2017-09-21T04:10:15.352Z,9.30
2017-09-21T04:12:42.792Z,9.30
2017-09-21T04:15:10.236Z,9.30
2017-09-21T04:17:37.679Z,9.30
2017-09-21T04:20:05.136Z,9.20
2017-09-21T04:22:32.580Z,9.30
2017-09-21T04:25:00.016Z,9.20
2017-09-21T04:27:27.455Z,9.20
2017-09-21T04:29:55.057Z,9.30
2017-09-21T04:32:22.520Z,9.30
2017-09-21T04:34:49.947Z,9.30
2017-09-21T04:37:17.433Z,9.30
2017-09-21T04:39:44.871Z,9.30
2017-09-21T04:42:12.316Z,9.40
2017-09-21T04:44:39.761Z,9.40
2017-09-21T04:47:07.195Z,9.40
2017-09-21T04:49:34.643Z,9.40
2017-09-21T04:52:02.190Z,9.40
2017-09-21T04:54:29.652Z,9.40
2017-09-21T04:56:57.864Z,9.20
2017-09-21T04:59:25.331Z,9.20
2017-09-21T05:01:52.876Z,9.20
2017-09-21T05:04:20.327Z,9.10
2017-09-21T05:06:47.772Z,9.20
2017-09-21T05:09:15.319Z,9.10
2017-09-21T05:11:42.869Z,9.10
2017-09-21T05:14:10.295Z,9.10
2017-09-21T05:16:37.740Z,9.10
2017-09-21T05:19:05.285Z,9.10
2017-09-21T05:21:32.725Z,9.10
2017-09-21T05:24:00.268Z,9.20
2017-09-21T05:26:27.813Z,9.20
2017-09-21T05:28:55.357Z,9.20
2017-09-21T05:31:22.804Z,9.20
2017-09-21T05:33:50.244Z,9.20
2017-09-21T05:36:17.704Z,9.30
2017-09-21T05:38:45.904Z,9.40
2017-09-21T05:41:13.339Z,9.40
2017-09-21T05:43:41.660Z,9.30
2017-09-21T05:46:09.096Z,9.30
2017-09-21T05:48:36.544Z,9.30
2017-09-21T05:51:03.980Z,9.30
2017-09-21T05:53:31.423Z,9.40
2017-09-21T05:55:58.928Z,9.40
2017-09-21T05:58:26.508Z,9.50
2017-09-21T06:00:53.957Z,9.60
2017-09-21T06:03:21.523Z,9.60
2017-09-21T06:05:49.946Z,9.60
2017-09-21T06:08:17.774Z,9.50
2017-09-21T06:10:45.192Z,9.60
2017-09-21T06:13:13.420Z,9.70
2017-09-21T06:15:40.844Z,9.70
2017-09-21T06:18:08.304Z,9.80
2017-09-21T06:20:35.924Z,9.90
2017-09-21T06:23:03.365Z,10.00
2017-09-21T06:25:30.808Z,10.10
2017-09-21T06:27:58.248Z,10.20
2017-09-21T06:30:25.688Z,10.40
2017-09-21T06:32:53.131Z,10.50
2017-09-21T06:35:20.572Z,10.70
2017-09-21T06:37:48.032Z,10.80
2017-09-21T06:40:15.480Z,10.90
2017-09-21T06:42:42.936Z,11.20
2017-09-21T06:45:10.379Z,11.40
2017-09-21T06:47:37.816Z,11.70
2017-09-21T06:50:05.363Z,12.00
2017-09-21T06:52:32.905Z,12.20
2017-09-21T06:55:00.364Z,12.60
2017-09-21T06:57:27.800Z,12.80
2017-09-21T06:59:55.336Z,13.00
2017-09-21T07:02:22.880Z,13.20
2017-09-21T07:04:50.326Z,13.60
2017-09-21T07:07:17.868Z,13.80
2017-09-21T07:09:45.308Z,14.00
2017-09-21T07:12:12.756Z,14.30
2017-09-21T07:14:40.200Z,14.40
2017-09-21T07:17:07.739Z,14.50
2017-09-21T07:19:35.184Z,14.70
2017-09-21T07:22:02.645Z,14.90
2017-09-21T07:24:30.085Z,15.20
2017-09-21T07:26:58.291Z,15.60
2017-09-21T07:29:25.776Z,15.60
2017-09-21T07:31:53.208Z,15.80
2017-09-21T07:34:20.672Z,15.90
2017-09-21T07:36:48.872Z,15.80
2017-09-21T07:39:16.311Z,15.80
2017-09-21T07:41:43.756Z,16.00
2017-09-21T07:44:11.192Z,16.20
2017-09-21T07:46:38.635Z,16.40
2017-09-21T07:49:06.082Z,16.60
2017-09-21T07:51:33.519Z,16.60
2017-09-21T07:54:00.960Z,16.80
2017-09-21T07:56:28.417Z,17.00
2017-09-21T07:58:55.856Z,17.40
2017-09-21T08:01:23.297Z,17.30
2017-09-21T08:03:50.736Z,17.10
2017-09-21T08:06:18.191Z,17.40
2017-09-21T08:08:45.628Z,17.70
2017-09-21T08:11:13.063Z,18.00
2017-09-21T08:13:40.495Z,18.00
2017-09-21T08:16:07.938Z,17.80
2017-09-21T08:18:35.372Z,17.80
2017-09-21T08:21:03.575Z,18.00
2017-09-21T08:23:31.008Z,17.90
2017-09-21T08:25:58.483Z,18.30
2017-09-21T08:28:26.692Z,18.90
2017-09-21T08:30:54.136Z,18.80
2017-09-21T08:33:21.568Z,19.00
2017-09-21T08:35:49.809Z,18.90
2017-09-21T08:38:17.356Z,18.90
2017-09-21T08:40:45.556Z,19.30
2017-09-21T08:43:13.115Z,19.30
2017-09-21T08:45:40.583Z,18.80
2017-09-21T08:48:08.021Z,18.50
2017-09-21T08:50:35.467Z,18.40
2017-09-21T08:53:02.907Z,18.70
2017-09-21T08:55:30.351Z,18.70
2017-09-21T08:57:57.793Z,18.80
2017-09-21T09:00:25.227Z,18.40
2017-09-21T09:02:52.671Z,18.40
2017-09-21T09:05:20.107Z,18.20
2017-09-21T09:07:47.557Z,18.00
2017-09-21T09:10:14.992Z,18.00
2017-09-21T09:12:42.432Z,17.80
2017-09-21T09:15:09.895Z,18.00
2017-09-21T09:17:38.120Z,18.50
2017-09-21T09:20:05.576Z,18.50
2017-09-21T09:22:33.017Z,18.80
2017-09-21T09:25:00.447Z,19.10
2017-09-21T09:27:27.925Z,19.10
2017-09-21T09:29:55.355Z,19.50
2017-09-21T09:32:22.912Z,19.40
2017-09-21T09:34:50.354Z,19.50
2017-09-21T09:37:17.780Z,19.40
2017-09-21T09:39:45.240Z,19.50
2017-09-21T09:42:12.711Z,19.40
2017-09-21T09:44:40.191Z,19.70
2017-09-21T09:47:07.615Z,19.60
2017-09-21T09:49:35.090Z,19.70
2017-09-21T09:52:02.569Z,19.40
2017-09-21T09:54:30.008Z,19.40
2017-09-21T09:56:58.268Z,19.80
2017-09-21T09:59:25.804Z,19.80
2017-09-21T10:01:53.246Z,20.30
2017-09-21T10:04:20.788Z,20.50
2017-09-21T10:06:48.215Z,20.70
2017-09-21T10:09:15.688Z,20.40
2017-09-21T10:11:43.108Z,20.40
2017-09-21T10:14:10.562Z,20.10
2017-09-21T10:16:38.011Z,19.80
2017-09-21T10:19:05.446Z,19.90
2017-09-21T10:21:32.966Z,19.70
2017-09-21T10:24:00.434Z,20.10
2017-09-21T10:26:27.859Z,20.20
2017-09-21T10:28:55.416Z,20.10
2017-09-21T10:31:22.941Z,20.40
2017-09-21T10:33:50.356Z,20.30
2017-09-21T10:36:17.792Z,20.10
2017-09-21T10:38:45.224Z,20.30
2017-09-21T10:41:20.163Z,19.80
2017-09-21T10:43:47.603Z,19.80
2017-09-21T10:46:15.048Z,19.10
2017-09-21T10:48:42.537Z,18.50
2017-09-21T10:51:10.079Z,18.10
2017-09-21T10:53:37.507Z,18.10
2017-09-21T10:56:05.003Z,17.90
2017-09-21T10:58:33.231Z,17.90
2017-09-21T11:01:00.668Z,17.90
2017-09-21T11:03:28.108Z,17.60
2017-09-21T11:05:55.556Z,17.20
2017-09-21T11:08:23.100Z,17.10
2017-09-21T11:10:50.542Z,17.00
2017-09-21T11:13:17.980Z,16.80
2017-09-21T11:15:45.412Z,16.80
2017-09-21T11:18:12.848Z,16.80
2017-09-21T11:20:40.597Z,16.70
2017-09-21T11:23:08.037Z,16.60
2017-09-21T11:25:35.471Z,16.70
2017-09-21T11:28:02.975Z,16.80
2017-09-21T11:30:31.287Z,16.70
2017-09-21T11:32:59.432Z,16.70
2017-09-21T11:35:27.040Z,16.60
2017-09-21T11:37:55.225Z,16.80
2017-09-21T11:40:22.720Z,16.80
2017-09-21T11:42:50.271Z,16.90
2017-09-21T11:45:18.469Z,16.80
2017-09-21T11:47:45.899Z,16.80
2017-09-21T11:50:14.100Z,16.70
2017-09-21T11:52:41.572Z,16.60
2017-09-21T11:55:09.012Z,16.80
2017-09-21T11:57:36.552Z,16.90
2017-09-21T12:00:04.004Z,17.00
2017-09-21T12:02:31.540Z,17.20
2017-09-21T12:04:58.968Z,17.20
2017-09-21T12:07:26.423Z,17.20
2017-09-21T12:09:53.852Z,17.10
2017-09-21T12:12:21.288Z,17.10
2017-09-21T12:14:48.720Z,17.10
2017-09-21T12:17:16.197Z,17.00
2017-09-21T12:19:43.629Z,16.90
2017-09-21T12:22:11.057Z,16.90
2017-09-21T12:24:38.488Z,16.80
2017-09-21T12:27:05.926Z,16.70
2017-09-21T12:29:33.353Z,16.70
2017-09-21T12:32:00.803Z,16.90
2017-09-21T12:34:28.345Z,17.00
2017-09-21T12:36:55.771Z,17.00
2017-09-21T12:39:23.973Z,16.90
2017-09-21T12:41:51.408Z,16.80
2017-09-21T12:44:18.855Z,16.90
2017-09-21T12:46:46.280Z,17.00
2017-09-21T12:49:13.716Z,17.00
2017-09-21T12:51:41.156Z,17.10
2017-09-21T12:54:08.652Z,17.10
2017-09-21T12:56:36.088Z,17.00
2017-09-21T12:59:03.535Z,17.10
2017-09-21T13:01:30.976Z,17.10
2017-09-21T13:03:58.416Z,17.10
2017-09-21T13:06:27.364Z,17.10
2017-09-21T13:08:54.793Z,17.10
2017-09-21T13:11:22.308Z,17.20
2017-09-21T13:13:49.745Z,17.20
2017-09-21T13:16:18.672Z,17.20
2017-09-21T13:18:46.112Z,17.20
2017-09-21T13:21:13.664Z,17.40
2017-09-21T13:23:41.101Z,17.50
2017-09-21T13:26:08.554Z,17.60
2017-09-21T13:28:36.048Z,17.50
2017-09-21T13:31:04.285Z,17.50
2017-09-21T13:33:31.757Z,17.50
2017-09-21T13:35:59.940Z,17.50
2017-09-21T13:38:27.384Z,17.50
2017-09-21T13:40:54.850Z,17.50
2017-09-21T13:43:22.339Z,17.40
2017-09-21T13:45:49.756Z,17.20
2017-09-21T13:48:17.299Z,17.30
2017-09-21T13:50:44.744Z,17.40
2017-09-21T13:53:12.187Z,17.40
2017-09-21T13:55:39.624Z,17.50
2017-09-21T13:58:07.061Z,17.50
2017-09-21T14:00:34.497Z,17.50
2017-09-21T14:03:02.005Z,17.50
2017-09-21T14:05:30.203Z,17.60
2017-09-21T14:07:57.660Z,17.60
2017-09-21T14:10:25.096Z,17.50
2017-09-21T14:12:52.543Z,17.60
2017-09-21T14:15:19.964Z,17.70
2017-09-21T14:17:49.132Z,17.70
2017-09-21T14:20:16.563Z,17.70
2017-09-21T14:22:43.992Z,17.90
2017-09-21T14:25:12.188Z,18.00
2017-09-21T14:27:39.615Z,18.00
2017-09-21T14:30:07.056Z,17.90
2017-09-21T14:32:34.621Z,17.80
2017-09-21T14:35:02.035Z,17.80
2017-09-21T14:37:29.468Z,17.60
2017-09-21T14:39:56.899Z,17.50
2017-09-21T14:42:25.117Z,17.20
2017-09-21T14:44:52.548Z,17.20
2017-09-21T14:47:19.985Z,17.40
2017-09-21T14:49:47.457Z,17.40
2017-09-21T14:52:14.888Z,17.30
2017-09-21T14:54:42.316Z,17.30
2017-09-21T14:57:09.787Z,17.20
2017-09-21T14:59:37.225Z,17.20
2017-09-21T15:02:04.667Z,17.10
2017-09-21T15:04:32.112Z,17.10
2017-09-21T15:06:59.652Z,17.10
2017-09-21T15:09:27.097Z,17.10
2017-09-21T15:11:54.531Z,17.10
2017-09-21T15:14:21.979Z,17.00
2017-09-21T15:16:49.411Z,17.00
2017-09-21T15:19:16.865Z,17.00
2017-09-21T15:21:44.299Z,17.00
2017-09-21T15:24:11.743Z,17.00
2017-09-21T15:26:39.296Z,17.00
2017-09-21T15:29:06.811Z,17.00
2017-09-21T15:31:34.235Z,16.90
2017-09-21T15:34:01.728Z,16.80
2017-09-21T15:36:29.166Z,16.70
2017-09-21T15:38:56.659Z,16.70
2017-09-21T15:41:24.088Z,16.60
2017-09-21T15:43:52.288Z,16.70
2017-09-21T15:46:19.720Z,16.60
2017-09-21T15:48:47.159Z,16.60
2017-09-21T15:51:14.640Z,16.70
2017-09-21T15:53:42.088Z,16.80
2017-09-21T15:56:09.631Z,16.80
2017-09-21T15:58:37.067Z,16.70
2017-09-21T16:01:04.522Z,16.70
2017-09-21T16:03:32.144Z,16.70
2017-09-21T16:05:59.567Z,16.60
2017-09-21T16:08:27.000Z,16.60
2017-09-21T16:10:54.439Z,16.60
2017-09-21T16:13:21.936Z,16.50
2017-09-21T16:15:49.373Z,16.50
2017-09-21T16:18:16.820Z,16.50
2017-09-21T16:20:44.254Z,16.30
2017-09-21T16:23:11.708Z,16.30
2017-09-21T16:25:39.196Z,16.30
2017-09-21T16:28:06.624Z,16.20
2017-09-21T16:30:34.836Z,16.10
2017-09-21T16:33:02.288Z,16.10
2017-09-21T16:35:29.835Z,16.10
2017-09-21T16:37:57.304Z,16.10
2017-09-21T16:40:24.745Z,16.00
2017-09-21T16:42:52.979Z,15.90
2017-09-21T16:45:20.421Z,15.90
2017-09-21T16:47:47.847Z,15.90
2017-09-21T16:50:15.291Z,15.90
2017-09-21T16:52:42.751Z,15.90
2017-09-21T16:55:10.277Z,15.90
2017-09-21T16:57:37.745Z,15.80
2017-09-21T17:00:05.237Z,15.80
2017-09-21T17:02:32.668Z,15.70
2017-09-21T17:05:00.160Z,15.70
2017-09-21T17:07:27.596Z,15.60
2017-09-21T17:09:55.080Z,15.60
2017-09-21T17:12:23.296Z,15.50
2017-09-21T17:14:50.739Z,15.50
2017-09-21T17:17:18.200Z,15.40
2017-09-21T17:19:45.638Z,15.30
2017-09-21T17:22:13.067Z,15.30
2017-09-21T17:24:40.529Z,15.30
2017-09-21T17:27:07.964Z,15.30
2017-09-21T17:29:35.404Z,15.20
2017-09-21T17:32:02.832Z,15.20
2017-09-21T17:34:30.300Z,15.20
2017-09-21T17:36:57.876Z,15.20
2017-09-21T17:39:26.186Z,15.20
2017-09-21T17:41:53.608Z,15.20
2017-09-21T17:44:21.040Z,15.20
2017-09-21T17:46:48.479Z,15.20
2017-09-21T17:49:15.919Z,15.20
2017-09-21T17:51:43.355Z,15.10
2017-09-21T17:54:11.551Z,15.10
2017-09-21T17:56:38.987Z,15.00
2017-09-21T17:59:06.431Z,15.00
2017-09-21T18:01:33.875Z,15.00
2017-09-21T18:04:01.313Z,14.90
2017-09-21T18:06:28.802Z,14.90
2017-09-21T18:08:56.236Z,14.90
2017-09-21T18:11:23.676Z,14.90
2017-09-21T18:13:51.132Z,14.90
2017-09-21T18:16:18.639Z,14.80
2017-09-21T18:18:46.080Z,14.80
2017-09-21T18:21:13.544Z,14.70
2017-09-21T18:23:41.012Z,14.70
2017-09-21T18:26:09.260Z,14.60
2017-09-21T18:28:36.695Z,14.60
2017-09-21T18:31:04.137Z,14.60
2017-09-21T18:33:31.577Z,14.60
2017-09-21T18:35:59.011Z,14.50
2017-09-21T18:38:26.460Z,14.40
2017-09-21T18:40:53.895Z,14.40
2017-09-21T18:43:21.339Z,14.30
2017-09-21T18:45:48.797Z,14.30
2017-09-21T18:48:16.340Z,14.30
2017-09-21T18:50:43.808Z,14.30
2017-09-21T18:53:12.022Z,14.20
2017-09-21T18:55:39.447Z,14.20
2017-09-21T18:58:07.100Z,14.20
2017-09-21T19:00:44.444Z,14.20
2017-09-21T19:03:11.888Z,14.10
2017-09-21T19:05:39.319Z,14.10
2017-09-21T19:08:07.524Z,14.00
2017-09-21T19:10:34.960Z,14.00
2017-09-21T19:13:02.433Z,13.90
2017-09-21T19:15:29.923Z,13.90
2017-09-21T19:17:58.120Z,13.60
2017-09-21T19:20:25.558Z,13.50
2017-09-21T19:22:53.000Z,13.50
2017-09-21T19:25:20.551Z,13.50
2017-09-21T19:27:48.160Z,13.60
2017-09-21T19:30:16.348Z,13.60
2017-09-21T19:32:43.845Z,13.50
2017-09-21T19:35:12.061Z,13.50
2017-09-21T19:37:39.525Z,13.50
2017-09-21T19:40:06.968Z,13.50
2017-09-21T19:42:34.404Z,13.50
2017-09-21T19:45:01.844Z,13.50
2017-09-21T19:47:29.328Z,13.50
2017-09-21T19:49:57.523Z,13.40
2017-09-21T19:52:25.050Z,13.30
2017-09-21T19:54:52.544Z,13.30
2017-09-21T19:57:20.027Z,13.30
2017-09-21T19:59:48.319Z,13.20
2017-09-21T20:02:15.818Z,13.20
2017-09-21T20:04:44.051Z,13.20
2017-09-21T20:07:11.491Z,13.10
2017-09-21T20:09:38.968Z,13.10
2017-09-21T20:12:07.188Z,13.00
2017-09-21T20:14:34.681Z,13.00
2017-09-21T20:17:02.872Z,12.90
2017-09-21T20:19:30.336Z,12.90
2017-09-21T20:21:57.771Z,12.90
2017-09-21T20:24:25.240Z,13.00
2017-09-21T20:26:52.680Z,12.90
2017-09-21T20:29:20.155Z,12.90
2017-09-21T20:31:47.591Z,12.90
2017-09-21T20:34:15.828Z,12.80
2017-09-21T20:36:43.269Z,12.80
2017-09-21T20:39:10.884Z,12.80
2017-09-21T20:41:38.347Z,12.80
2017-09-21T20:44:05.799Z,12.80
2017-09-21T20:46:33.239Z,12.70
2017-09-21T20:49:00.779Z,12.70
2017-09-21T20:51:28.236Z,12.70
2017-09-21T20:53:55.672Z,12.70
2017-09-21T20:56:23.151Z,12.60
2017-09-21T20:58:51.376Z,12.50
2017-09-21T21:01:18.831Z,12.50
2017-09-21T21:03:47.035Z,12.50
2017-09-21T21:06:14.496Z,12.50
2017-09-21T21:08:41.932Z,12.40
2017-09-21T21:11:09.372Z,12.40
2017-09-21T21:13:36.820Z,12.40
2017-09-21T21:16:04.288Z,12.30
2017-09-21T21:18:32.544Z,12.20
2017-09-21T21:20:59.988Z,12.20
2017-09-21T21:23:27.532Z,12.20
2017-09-21T21:25:54.987Z,12.20
2017-09-21T21:28:22.427Z,12.20
2017-09-21T21:30:49.860Z,12.10
2017-09-21T21:33:17.327Z,12.10
2017-09-21T21:35:45.527Z,12.10
2017-09-21T21:38:13.088Z,12.10
2017-09-21T21:40:40.508Z,12.20
2017-09-21T21:43:07.948Z,12.20
2017-09-21T21:45:35.384Z,12.10
2017-09-21T21:48:02.824Z,12.10
2017-09-21T21:50:30.255Z,12.10
2017-09-21T21:52:58.463Z,12.10
2017-09-21T21:55:25.964Z,12.10
2017-09-21T21:57:53.443Z,12.10
2017-09-21T22:00:20.868Z,12.00
2017-09-21T22:02:48.353Z,12.00
2017-09-21T22:05:15.787Z,12.00
2017-09-21T22:07:43.339Z,12.00
2017-09-21T22:10:10.780Z,11.90
2017-09-21T22:12:38.215Z,11.90
2017-09-21T22:15:05.708Z,11.80
2017-09-21T22:17:33.211Z,11.80
2017-09-21T22:20:00.760Z,11.80
2017-09-21T22:22:28.192Z,11.70
2017-09-21T22:24:55.743Z,11.60
2017-09-21T22:27:23.316Z,11.50
2017-09-21T22:29:51.524Z,11.30
2017-09-21T22:32:18.964Z,11.30
2017-09-21T22:34:46.540Z,11.20
2017-09-21T22:37:14.000Z,11.20
2017-09-21T22:39:41.441Z,11.20
2017-09-21T22:42:08.911Z,11.10
2017-09-21T22:44:36.411Z,11.10
2017-09-21T22:47:05.401Z,11.00
2017-09-21T22:49:33.615Z,11.00
2017-09-21T22:52:01.092Z,10.90
2017-09-21T22:54:28.523Z,10.90
2017-09-21T22:56:56.001Z,10.90
2017-09-21T22:59:23.407Z,10.90
2017-09-21T23:01:50.859Z,10.90
2017-09-21T23:04:18.303Z,10.90
2017-09-21T23:06:45.851Z,10.80
2017-09-21T23:09:13.287Z,10.80
2017-09-21T23:11:40.732Z,10.80
2017-09-21T23:14:08.231Z,10.80
2017-09-21T23:16:35.671Z,10.80
2017-09-21T23:19:03.103Z,10.70
2017-09-21T23:21:30.544Z,10.70
2017-09-21T23:23:58.051Z,10.70
2017-09-21T23:26:25.591Z,10.70
2017-09-21T23:28:53.038Z,10.60
2017-09-21T23:31:20.492Z,10.60
2017-09-21T23:33:47.928Z,10.50
2017-09-21T23:36:15.383Z,10.60
2017-09-21T23:38:43.623Z,10.40
2017-09-21T23:41:11.071Z,10.40
2017-09-21T23:43:38.552Z,10.40
2017-09-21T23:46:06.064Z,10.30
2017-09-21T23:48:33.599Z,10.30
2017-09-21T23:51:01.043Z,10.30
2017-09-21T23:53:28.498Z,10.30
2017-09-21T23:55:55.919Z,10.30
2017-09-21T23:58:24.881Z,10.20
